createdAt,value
2018-12-07T00:00:09.593Z,97.80
2018-12-07T00:02:39.003Z,97.57
2018-12-07T00:05:08.632Z,97.21
2018-12-07T00:07:37.993Z,98.22
2018-12-07T00:10:07.632Z,97.17
2018-12-07T00:12:36.934Z,97.31
2018-12-07T00:15:08.151Z,96.62
2018-12-07T00:17:37.566Z,97.28
2018-12-07T00:20:09.199Z,97.96
2018-12-07T00:22:39.962Z,97.60
2018-12-07T00:25:09.579Z,97.97
2018-12-07T00:27:38.870Z,98.05
2018-12-07T00:30:08.590Z,98.27
2018-12-07T00:32:37.882Z,98.50
2018-12-07T00:35:07.536Z,97.16
2018-12-07T00:37:36.871Z,97.81
2018-12-07T00:40:07.978Z,98.29
2018-12-07T00:42:37.359Z,98.56
2018-12-07T00:45:07.323Z,98.05
2018-12-07T00:47:36.745Z,98.86
2018-12-07T00:50:06.897Z,98.53
2018-12-07T00:52:36.194Z,98.89
2018-12-07T00:57:53.312Z,97.96
2018-12-07T01:00:22.660Z,98.66
2018-12-07T01:02:52.025Z,99.36
2018-12-07T01:05:21.318Z,98.54
2018-12-07T01:07:50.658Z,99.05
2018-12-07T01:10:20.099Z,98.99
2018-12-07T01:12:49.431Z,99.14
2018-12-07T01:15:18.760Z,98.56
2018-12-07T01:17:48.103Z,98.39
2018-12-07T01:20:17.476Z,98.13
2018-12-07T01:22:46.907Z,97.75
2018-12-07T01:25:16.247Z,97.63
2018-12-07T01:27:45.624Z,97.58
2018-12-07T01:30:15.105Z,97.98
2018-12-07T01:32:44.585Z,97.66
2018-12-07T01:35:14.241Z,98.17
2018-12-07T01:37:43.574Z,97.61
2018-12-07T01:40:13.043Z,97.42
2018-12-07T01:42:42.399Z,97.94
2018-12-07T01:45:11.944Z,98.01
2018-12-07T01:47:46.328Z,96.79
2018-12-07T01:50:16.891Z,97.17
2018-12-07T01:52:46.255Z,97.39
2018-12-07T01:55:15.698Z,97.33
2018-12-07T01:57:45.058Z,97.21
2018-12-07T02:00:14.970Z,96.74
2018-12-07T02:02:44.611Z,97.07
2018-12-07T02:05:14.161Z,96.63
2018-12-07T02:07:43.879Z,96.59
2018-12-07T02:10:13.354Z,96.20
2018-12-07T02:12:42.715Z,96.56
2018-12-07T02:15:12.068Z,96.38
2018-12-07T02:17:41.448Z,96.84
2018-12-07T02:20:10.885Z,96.77
2018-12-07T02:22:40.232Z,95.81
2018-12-07T02:25:09.676Z,96.11
2018-12-07T02:27:44.250Z,96.13
2018-12-07T02:30:13.789Z,95.71
2018-12-07T02:32:43.234Z,96.21
2018-12-07T02:35:12.537Z,94.96
2018-12-07T02:37:41.863Z,95.75
2018-12-07T02:40:11.268Z,95.80
2018-12-07T02:42:40.656Z,96.70
2018-12-07T02:45:10.092Z,96.83
2018-12-07T02:47:40.463Z,96.57
2018-12-07T02:50:10.187Z,96.22
2018-12-07T02:52:39.618Z,96.85
2018-12-07T02:55:09.234Z,97.09
2018-12-07T02:57:38.789Z,97.26
2018-12-07T03:00:09.423Z,97.17
2018-12-07T03:02:38.724Z,97.65
2018-12-07T03:05:08.192Z,97.35
2018-12-07T03:07:37.558Z,97.95
2018-12-07T03:10:07.287Z,98.06
2018-12-07T03:12:36.681Z,97.50
2018-12-07T03:15:06.808Z,97.78
2018-12-07T03:17:36.151Z,97.53
2018-12-07T03:20:06.316Z,97.22
2018-12-07T03:22:35.951Z,97.23
2018-12-07T03:25:06.220Z,96.68
2018-12-07T03:27:38.425Z,96.80
2018-12-07T03:30:07.932Z,96.96
2018-12-07T03:32:37.488Z,97.13
2018-12-07T03:35:07.133Z,96.87
2018-12-07T03:37:36.431Z,96.91
2018-12-07T03:40:06.379Z,97.24
2018-12-07T03:42:35.784Z,96.91
2018-12-07T03:45:05.447Z,96.52
2018-12-07T03:47:34.787Z,96.02
2018-12-07T03:50:04.276Z,96.08
2018-12-07T03:52:33.576Z,96.33
2018-12-07T03:55:02.923Z,96.49
2018-12-07T03:57:32.350Z,96.54
2018-12-07T04:00:01.663Z,96.61
2018-12-07T04:02:31.255Z,97.18
2018-12-07T04:05:00.581Z,97.20
2018-12-07T04:07:29.989Z,96.47
2018-12-07T04:09:59.379Z,95.92
2018-12-07T04:12:28.691Z,96.45
2018-12-07T04:14:58.068Z,96.75
2018-12-07T04:17:27.410Z,96.42
2018-12-07T04:19:56.753Z,96.97
2018-12-07T04:22:26.133Z,97.57
2018-12-07T04:24:55.722Z,96.97
2018-12-07T04:27:25.271Z,97.34
2018-12-07T04:30:10.393Z,97.92
2018-12-07T04:32:39.949Z,97.81
2018-12-07T04:35:09.369Z,97.42
2018-12-07T04:37:38.712Z,97.52
2018-12-07T04:40:08.219Z,96.72
2018-12-07T04:42:37.532Z,96.82
2018-12-07T04:45:07.095Z,96.98
2018-12-07T04:47:36.545Z,96.43
2018-12-07T04:50:05.820Z,96.11
2018-12-07T04:52:35.325Z,96.83
2018-12-07T04:55:05.730Z,97.18
2018-12-07T04:57:35.199Z,97.30
2018-12-07T05:00:05.804Z,96.10
2018-12-07T05:02:35.113Z,95.91
2018-12-07T05:05:05.000Z,94.66
2018-12-07T05:07:34.402Z,95.19
2018-12-07T05:10:04.266Z,94.83
2018-12-07T05:12:33.563Z,93.98
2018-12-07T05:15:02.833Z,94.06
2018-12-07T05:17:32.185Z,93.78
2018-12-07T05:20:01.473Z,94.33
2018-12-07T05:22:30.807Z,94.62
2018-12-07T05:25:01.329Z,94.49
2018-12-07T05:27:30.893Z,94.10
2018-12-07T05:30:00.220Z,94.83
2018-12-07T05:32:29.895Z,94.25
2018-12-07T05:34:59.213Z,94.95
2018-12-07T05:37:28.583Z,94.94
2018-12-07T05:39:57.924Z,95.27
2018-12-07T05:42:27.316Z,94.46
2018-12-07T05:44:56.655Z,94.76
2018-12-07T05:47:26.000Z,95.42
2018-12-07T05:49:55.472Z,95.77
2018-12-07T05:52:24.764Z,94.82
2018-12-07T05:54:55.325Z,95.03
2018-12-07T05:57:24.891Z,97.04
2018-12-07T05:59:54.374Z,93.54
2018-12-07T06:02:23.861Z,94.63
2018-12-07T06:04:53.168Z,94.21
2018-12-07T06:07:22.508Z,94.28
2018-12-07T06:09:51.891Z,94.31
2018-12-07T06:12:21.512Z,94.68
2018-12-07T06:14:50.988Z,94.89
2018-12-07T06:17:20.277Z,95.16
2018-12-07T06:19:49.579Z,95.39
2018-12-07T06:22:18.874Z,95.49
2018-12-07T06:24:48.233Z,95.33
2018-12-07T06:27:17.788Z,95.88
2018-12-07T06:29:47.274Z,95.94
2018-12-07T06:32:16.786Z,96.14
2018-12-07T06:34:46.107Z,96.37
2018-12-07T06:37:15.391Z,96.74
2018-12-07T06:39:44.708Z,96.52
2018-12-07T06:42:14.229Z,95.85
2018-12-07T06:44:43.683Z,95.99
2018-12-07T06:47:12.960Z,95.77
2018-12-07T06:49:42.266Z,94.96
2018-12-07T06:52:11.557Z,95.26
2018-12-07T06:54:41.064Z,95.25
2018-12-07T06:57:10.481Z,95.05
2018-12-07T06:59:40.042Z,94.77
2018-12-07T07:02:09.461Z,95.17
2018-12-07T07:04:38.819Z,94.42
2018-12-07T07:07:08.224Z,94.13
2018-12-07T07:09:37.599Z,94.76
2018-12-07T07:12:06.982Z,94.19
2018-12-07T07:14:36.460Z,95.06
2018-12-07T07:17:06.055Z,95.66
2018-12-07T07:19:35.397Z,95.65
2018-12-07T07:22:04.977Z,95.22
2018-12-07T07:24:34.262Z,94.95
2018-12-07T07:27:03.617Z,95.36
2018-12-07T07:29:33.035Z,95.79
2018-12-07T07:32:02.479Z,95.33
2018-12-07T07:34:31.811Z,94.96
2018-12-07T07:37:01.155Z,94.25
2018-12-07T07:39:30.504Z,91.25
2018-12-07T07:41:59.851Z,91.53
2018-12-07T07:44:29.173Z,92.34
2018-12-07T07:46:58.521Z,92.16
2018-12-07T07:49:27.871Z,91.43
2018-12-07T07:51:57.197Z,90.38
2018-12-07T07:54:26.614Z,90.89
2018-12-07T07:56:55.945Z,91.52
2018-12-07T07:59:25.270Z,90.60
2018-12-07T08:01:54.989Z,90.45
2018-12-07T08:04:24.426Z,90.74
2018-12-07T08:06:53.781Z,91.32
2018-12-07T08:09:23.097Z,90.69
2018-12-07T08:11:52.396Z,90.77
2018-12-07T08:14:21.779Z,90.91
2018-12-07T08:16:51.168Z,89.45
2018-12-07T08:19:20.516Z,90.45
2018-12-07T08:21:49.878Z,89.57
2018-12-07T08:24:19.256Z,89.28
2018-12-07T08:26:48.609Z,89.40
2018-12-07T08:29:17.947Z,89.32
2018-12-07T08:31:47.341Z,87.14
2018-12-07T08:34:16.804Z,87.05
2018-12-07T08:36:46.226Z,86.98
2018-12-07T08:39:15.529Z,86.33
2018-12-07T08:41:45.021Z,83.62
2018-12-07T08:44:14.615Z,84.38
2018-12-07T08:46:44.116Z,83.73
2018-12-07T08:52:00.358Z,82.26
2018-12-07T08:54:29.842Z,81.89
2018-12-07T08:56:59.263Z,81.60
2018-12-07T08:59:28.594Z,82.51
2018-12-07T09:01:58.054Z,82.02
2018-12-07T09:04:27.620Z,80.93
2018-12-07T09:06:57.053Z,82.26
2018-12-07T09:09:26.387Z,81.13
2018-12-07T09:11:55.871Z,79.98
2018-12-07T09:14:25.271Z,81.08
2018-12-07T09:16:54.849Z,80.51
2018-12-07T09:19:24.184Z,80.19
2018-12-07T09:21:53.613Z,80.92
2018-12-07T09:24:23.425Z,80.78
2018-12-07T09:26:52.945Z,79.82
2018-12-07T09:29:22.282Z,80.65
2018-12-07T09:31:51.733Z,79.88
2018-12-07T09:34:21.058Z,79.89
2018-12-07T09:36:50.393Z,79.50
2018-12-07T09:39:19.898Z,79.94
2018-12-07T09:41:49.290Z,80.52
2018-12-07T09:44:18.637Z,80.64
2018-12-07T09:46:47.969Z,80.20
2018-12-07T09:49:17.337Z,79.89
2018-12-07T09:51:46.670Z,79.79
2018-12-07T09:54:16.045Z,79.92
2018-12-07T09:56:45.361Z,80.13
2018-12-07T09:59:14.831Z,80.29
2018-12-07T10:01:44.304Z,80.29
2018-12-07T10:04:14.776Z,79.96
2018-12-07T10:06:44.288Z,80.77
2018-12-07T10:09:13.685Z,81.13
2018-12-07T10:11:42.955Z,80.79
2018-12-07T10:14:12.266Z,80.05
2018-12-07T10:16:41.576Z,80.41
2018-12-07T10:19:10.949Z,80.18
2018-12-07T10:21:40.229Z,80.80
2018-12-07T10:24:09.571Z,79.93
2018-12-07T10:26:38.884Z,80.37
2018-12-07T10:29:08.216Z,79.37
2018-12-07T10:31:37.533Z,79.84
2018-12-07T10:34:06.943Z,79.46
2018-12-07T10:36:36.339Z,78.99
2018-12-07T10:39:07.690Z,79.74
2018-12-07T10:41:37.045Z,79.05
2018-12-07T10:44:06.397Z,77.75
2018-12-07T10:46:35.720Z,77.97
2018-12-07T10:49:05.158Z,78.21
2018-12-07T10:51:34.498Z,77.22
2018-12-07T10:54:03.817Z,77.88
2018-12-07T10:56:33.124Z,77.87
2018-12-07T10:59:02.477Z,76.92
2018-12-07T11:01:37.088Z,76.82
2018-12-07T11:04:11.729Z,75.70
2018-12-07T11:06:46.269Z,75.98
2018-12-07T11:09:20.763Z,75.80
2018-12-07T11:14:52.527Z,76.67
2018-12-07T11:17:27.230Z,76.14
2018-12-07T11:20:01.800Z,76.24
2018-12-07T11:22:36.588Z,76.31
2018-12-07T11:25:11.284Z,75.64
2018-12-07T11:27:45.871Z,75.55
2018-12-07T11:30:20.481Z,75.83
2018-12-07T11:32:55.149Z,76.38
2018-12-07T11:35:28.586Z,76.12
2018-12-07T11:37:57.929Z,76.26
2018-12-07T11:40:28.666Z,75.55
2018-12-07T11:42:58.469Z,75.88
2018-12-07T11:45:27.833Z,76.73
2018-12-07T11:47:57.277Z,75.67
2018-12-07T11:50:26.657Z,77.10
2018-12-07T11:52:55.975Z,76.17
2018-12-07T11:55:25.320Z,75.93
2018-12-07T11:57:54.638Z,76.42
2018-12-07T12:00:24.089Z,75.81
2018-12-07T12:02:53.416Z,76.22
2018-12-07T12:05:22.765Z,76.34
2018-12-07T12:07:52.151Z,76.70
2018-12-07T12:10:21.439Z,75.78
2018-12-07T12:12:50.708Z,75.97
2018-12-07T12:15:20.097Z,75.72
2018-12-07T12:17:49.477Z,76.18
2018-12-07T12:20:18.797Z,75.91
2018-12-07T12:22:48.124Z,76.24
2018-12-07T12:25:17.417Z,75.90
2018-12-07T12:27:46.698Z,75.60
2018-12-07T12:30:17.819Z,76.09
2018-12-07T12:32:47.313Z,74.26
2018-12-07T12:35:16.697Z,74.84
2018-12-07T12:37:46.047Z,75.39
2018-12-07T12:40:15.453Z,74.36
2018-12-07T12:42:44.762Z,74.86
2018-12-07T12:45:14.103Z,75.08
2018-12-07T12:47:43.513Z,74.55
2018-12-07T12:50:18.333Z,74.48
2018-12-07T12:52:47.819Z,74.54
2018-12-07T12:55:17.105Z,74.44
2018-12-07T12:57:46.433Z,74.86
2018-12-07T13:00:15.887Z,75.19
2018-12-07T13:02:45.316Z,74.96
2018-12-07T13:05:14.663Z,75.31
2018-12-07T13:07:44.002Z,75.64
2018-12-07T13:10:13.508Z,75.88
2018-12-07T13:12:42.809Z,77.04
2018-12-07T13:15:12.200Z,79.07
2018-12-07T13:17:41.559Z,81.72
2018-12-07T13:20:10.942Z,83.96
2018-12-07T13:22:41.425Z,85.71
2018-12-07T13:25:10.752Z,87.53
2018-12-07T13:27:40.093Z,85.38
2018-12-07T13:30:09.643Z,88.27
2018-12-07T13:32:38.963Z,87.61
2018-12-07T13:35:08.458Z,88.32
2018-12-07T13:37:37.776Z,89.02
2018-12-07T13:40:07.673Z,88.43
2018-12-07T13:42:37.107Z,89.59
2018-12-07T13:45:08.807Z,88.14
2018-12-07T13:47:38.486Z,87.77
2018-12-07T13:50:13.367Z,88.31
2018-12-07T13:52:42.733Z,88.27
2018-12-07T13:55:12.162Z,89.06
2018-12-07T13:57:41.715Z,88.09
2018-12-07T14:00:11.310Z,88.64
2018-12-07T14:02:40.888Z,87.78
2018-12-07T14:05:10.475Z,88.22
2018-12-07T14:07:40.210Z,88.19
2018-12-07T14:10:09.821Z,86.86
2018-12-07T14:12:39.162Z,85.52
2018-12-07T14:15:09.665Z,85.07
2018-12-07T14:17:39.333Z,83.82
2018-12-07T14:20:10.014Z,82.94
2018-12-07T14:22:39.644Z,82.74
2018-12-07T14:25:09.476Z,82.90
2018-12-07T14:27:38.955Z,81.99
2018-12-07T14:30:10.657Z,82.42
2018-12-07T14:32:40.348Z,81.92
2018-12-07T14:35:10.238Z,81.88
2018-12-07T14:37:39.934Z,81.84
2018-12-07T14:40:09.728Z,82.17
2018-12-07T14:42:39.181Z,81.55
2018-12-07T14:45:09.186Z,81.78
2018-12-07T14:47:38.667Z,81.75
2018-12-07T14:50:08.813Z,81.55
2018-12-07T14:52:38.269Z,81.69
2018-12-07T14:55:08.090Z,81.87
2018-12-07T14:57:37.792Z,81.11
2018-12-07T15:00:09.049Z,81.00
2018-12-07T15:02:38.592Z,80.87
2018-12-07T15:05:08.575Z,79.73
2018-12-07T15:07:37.921Z,78.87
2018-12-07T15:10:08.779Z,78.55
2018-12-07T15:12:38.469Z,79.13
2018-12-07T15:15:08.239Z,78.74
2018-12-07T15:17:37.860Z,78.33
2018-12-07T15:20:09.062Z,78.07
2018-12-07T15:22:38.621Z,78.20
2018-12-07T15:25:08.613Z,77.38
2018-12-07T15:27:38.140Z,76.90
2018-12-07T15:30:09.416Z,77.44
2018-12-07T15:32:39.191Z,77.28
2018-12-07T15:35:09.802Z,76.79
2018-12-07T15:37:39.422Z,77.44
2018-12-07T15:40:10.833Z,77.00
2018-12-07T15:42:40.336Z,76.65
2018-12-07T15:45:10.155Z,76.88
2018-12-07T15:47:39.791Z,77.37
2018-12-07T15:50:10.264Z,76.29
2018-12-07T15:52:40.010Z,76.48
2018-12-07T15:55:09.734Z,76.95
2018-12-07T15:57:39.142Z,77.25
2018-12-07T16:00:10.236Z,76.84
2018-12-07T16:02:39.695Z,76.49
2018-12-07T16:05:09.478Z,75.80
2018-12-07T16:07:39.820Z,76.19
2018-12-07T16:10:09.943Z,76.11
2018-12-07T16:12:39.907Z,76.67
2018-12-07T16:15:09.684Z,76.32
2018-12-07T16:17:39.226Z,76.07
2018-12-07T16:20:15.709Z,75.69
2018-12-07T16:22:45.072Z,75.35
2018-12-07T16:25:14.693Z,74.47
2018-12-07T16:27:44.237Z,74.93
2018-12-07T16:30:13.754Z,75.64
2018-12-07T16:32:43.333Z,75.10
2018-12-07T16:35:12.975Z,75.75
2018-12-07T16:37:49.271Z,76.95
2018-12-07T16:40:18.751Z,75.55
2018-12-07T16:42:48.160Z,75.04
2018-12-07T16:45:17.931Z,74.40
2018-12-07T16:47:47.602Z,74.91
2018-12-07T16:50:17.148Z,74.53
2018-12-07T16:52:46.574Z,75.08
2018-12-07T16:55:16.161Z,75.33
2018-12-07T16:57:45.786Z,76.27
2018-12-07T17:00:15.353Z,75.89
2018-12-07T17:02:44.723Z,76.13
2018-12-07T17:05:14.338Z,75.66
2018-12-07T17:07:43.725Z,75.66
2018-12-07T17:10:13.874Z,75.62
2018-12-07T17:12:43.630Z,76.35
2018-12-07T17:15:13.730Z,76.86
2018-12-07T17:17:43.113Z,76.57
2018-12-07T17:20:12.779Z,76.32
2018-12-07T17:22:42.522Z,76.79
2018-12-07T17:25:12.256Z,75.62
2018-12-07T17:27:41.788Z,75.76
2018-12-07T17:30:11.686Z,76.02
2018-12-07T17:32:41.220Z,76.60
2018-12-07T17:35:10.778Z,76.49
2018-12-07T17:37:40.289Z,75.87
2018-12-07T17:40:10.027Z,75.44
2018-12-07T17:42:39.522Z,75.11
2018-12-07T17:45:09.202Z,74.79
2018-12-07T17:47:38.779Z,74.12
2018-12-07T17:50:09.541Z,74.59
2018-12-07T17:52:38.938Z,74.08
2018-12-07T17:55:08.426Z,73.61
2018-12-07T17:57:37.864Z,74.48
2018-12-07T18:00:10.354Z,75.27
2018-12-07T18:02:39.799Z,75.80
2018-12-07T18:05:09.497Z,75.70
2018-12-07T18:07:39.101Z,76.65
2018-12-07T18:10:10.038Z,76.95
2018-12-07T18:12:39.795Z,77.42
2018-12-07T18:15:09.856Z,78.97
2018-12-07T18:17:39.273Z,78.67
2018-12-07T18:20:09.314Z,78.31
2018-12-07T18:22:38.782Z,78.93
2018-12-07T18:25:08.881Z,79.38
2018-12-07T18:27:38.405Z,78.57
2018-12-07T18:30:08.359Z,79.34
2018-12-07T18:32:37.912Z,79.23
2018-12-07T18:35:07.913Z,79.57
2018-12-07T18:37:37.627Z,79.50
2018-12-07T18:40:08.271Z,79.18
2018-12-07T18:42:37.722Z,79.70
2018-12-07T18:45:07.682Z,79.72
2018-12-07T18:47:37.241Z,80.44
2018-12-07T18:50:08.302Z,80.93
2018-12-07T18:52:37.835Z,81.09
2018-12-07T18:55:10.210Z,81.38
2018-12-07T18:57:39.805Z,81.66
2018-12-07T19:00:10.413Z,82.82
2018-12-07T19:02:39.912Z,83.11
2018-12-07T19:05:09.516Z,83.23
2018-12-07T19:07:39.311Z,83.83
2018-12-07T19:10:09.019Z,83.65
2018-12-07T19:12:38.604Z,83.87
2018-12-07T19:15:09.674Z,84.32
2018-12-07T19:17:39.704Z,84.11
2018-12-07T19:20:09.702Z,84.34
2018-12-07T19:22:39.201Z,84.02
2018-12-07T19:25:09.310Z,84.51
2018-12-07T19:27:38.816Z,85.39
2018-12-07T19:30:14.747Z,85.15
2018-12-07T19:32:43.010Z,85.39
2018-12-07T19:35:12.698Z,85.55
2018-12-07T19:37:42.258Z,85.82
2018-12-07T19:40:11.699Z,86.15
2018-12-07T19:42:41.285Z,85.99
2018-12-07T19:45:11.663Z,85.52
2018-12-07T19:47:41.186Z,85.61
2018-12-07T19:50:11.512Z,86.09
2018-12-07T19:52:40.928Z,86.36
2018-12-07T19:55:10.841Z,87.44
2018-12-07T19:57:40.492Z,87.69
2018-12-07T20:00:13.851Z,87.54
2018-12-07T20:02:42.925Z,87.64
2018-12-07T20:05:12.621Z,87.50
2018-12-07T20:07:42.287Z,86.28
2018-12-07T20:10:11.945Z,86.46
2018-12-07T20:12:41.344Z,86.76
2018-12-07T20:15:11.009Z,87.77
2018-12-07T20:17:40.873Z,90.03
2018-12-07T20:20:11.438Z,94.87
2018-12-07T20:22:41.246Z,94.78
2018-12-07T20:25:10.889Z,93.14
2018-12-07T20:27:40.429Z,93.10
2018-12-07T20:30:10.209Z,93.43
2018-12-07T20:32:39.912Z,92.85
2018-12-07T20:35:09.663Z,92.40
2018-12-07T20:37:39.306Z,93.25
2018-12-07T20:40:09.296Z,94.33
2018-12-07T20:42:38.972Z,92.91
2018-12-07T20:45:08.918Z,93.02
2018-12-07T20:47:38.455Z,92.64
2018-12-07T20:50:08.781Z,91.66
2018-12-07T20:52:38.132Z,90.60
2018-12-07T20:55:08.165Z,88.91
2018-12-07T20:57:37.657Z,89.81
2018-12-07T21:00:09.503Z,89.51
2018-12-07T21:02:39.079Z,88.38
2018-12-07T21:07:36.534Z,88.42
2018-12-07T21:11:18.074Z,88.87
2018-12-07T21:14:11.403Z,89.71
2018-12-07T21:17:12.242Z,89.62
2018-12-07T21:19:50.300Z,90.03
2018-12-07T21:22:19.720Z,88.15
2018-12-07T21:24:49.226Z,89.18
2018-12-07T21:27:18.946Z,89.03
2018-12-07T21:30:10.378Z,88.62
2018-12-07T21:32:39.670Z,88.94
2018-12-07T21:35:11.777Z,87.91
2018-12-07T21:37:41.152Z,88.58
2018-12-07T21:40:18.553Z,88.42
2018-12-07T21:42:48.162Z,88.75
2018-12-07T21:45:17.757Z,88.95
2018-12-07T21:48:52.709Z,88.20
2018-12-07T21:52:25.420Z,89.20
2018-12-07T21:54:55.106Z,89.07
2018-12-07T21:57:24.880Z,88.90
2018-12-07T21:59:54.422Z,87.97
2018-12-07T22:02:23.826Z,86.90
2018-12-07T22:04:53.601Z,86.21
2018-12-07T22:07:23.091Z,86.69
2018-12-07T22:09:52.568Z,86.29
2018-12-07T22:12:21.972Z,86.55
2018-12-07T22:14:51.285Z,87.19
2018-12-07T22:17:20.905Z,87.59
2018-12-07T22:19:50.321Z,90.17
2018-12-07T22:22:19.763Z,92.03
2018-12-07T22:24:49.180Z,92.21
2018-12-07T22:27:18.629Z,90.82
2018-12-07T22:29:48.230Z,90.46
2018-12-07T22:32:17.843Z,89.92
2018-12-07T22:34:47.289Z,89.58
2018-12-07T22:37:16.593Z,88.77
2018-12-07T22:39:46.076Z,88.37
2018-12-07T22:42:15.635Z,87.91
2018-12-07T22:44:45.318Z,87.68
2018-12-07T22:47:15.082Z,86.31
2018-12-07T22:49:44.564Z,84.62
2018-12-07T22:52:13.907Z,84.88
2018-12-07T22:54:43.261Z,85.15
2018-12-07T22:57:12.572Z,84.97
2018-12-07T22:59:41.844Z,84.44
2018-12-07T23:02:11.813Z,84.22
2018-12-07T23:04:41.210Z,84.34
2018-12-07T23:07:10.501Z,83.93
2018-12-07T23:09:39.829Z,84.88
2018-12-07T23:12:09.196Z,85.13
2018-12-07T23:14:38.610Z,83.74
2018-12-07T23:17:07.921Z,83.31
2018-12-07T23:19:37.321Z,83.46
2018-12-07T23:22:06.712Z,82.47
2018-12-07T23:24:36.024Z,81.01
2018-12-07T23:27:05.396Z,81.61
2018-12-07T23:29:34.800Z,81.73
2018-12-07T23:32:04.260Z,81.65
2018-12-07T23:34:33.747Z,82.40
2018-12-07T23:37:03.117Z,80.52
2018-12-07T23:39:32.427Z,79.27
2018-12-07T23:42:01.913Z,80.68
2018-12-07T23:44:31.320Z,81.20
2018-12-07T23:47:00.741Z,81.08
2018-12-07T23:49:30.106Z,81.07
2018-12-07T23:51:59.642Z,81.35
2018-12-07T23:54:29.020Z,81.34
2018-12-07T23:56:58.330Z,81.15
2018-12-07T23:59:27.651Z,82.03
